Airfield :
LOGIN :

Register | Disclaimer

   EN    FR    IT 

 










Legend :    VFR   Marginal VFR   IFR   Intensive IFR   Very Intensive IFR
Visi :
Ceiling :
>= 8 km
>= 3000ft
5 to 8 km
1000 to 3000 ft
1500m to 5 km
500 to 1000 ft
800 to 1500m
200 to 500 ft
< 800m
< 200 ft
Symbols :   Thunderstorms  Fog  Heavy snow  Heavy precipitations  Wind > 20 kt
SIGMETs :     Misc.  Thunderstorms  Icing  Turbulence  Mountain Waves  Volcanic Ashes






- Airport Elevation : 1966 ft
- IATA code : SGE


EDGS - Siegerland

CURRENT METAR :
  • 281520Z 34012KT CAVOK 18/M01 Q1029

EXPIRED METARs :
  • 281450Z 33008KT CAVOK 17/M01 Q1030
  • 281420Z 35012KT CAVOK 17/M01 Q1030
  • 281350Z 34012KT 280V020 CAVOK 18/M00 Q1030
  • 281320Z 35012KT CAVOK 18/01 Q1030
  • 281250Z 04012KT 330V090 CAVOK 17/M02 Q1030

TAF TAF EDGS
Valid from the 28 at 15:00 until the 29 at 00:00 UTC


281400Z 2815/2824 04011KT CAVOK
BECMG 2819/2821 02006KT



MET'MAP, your aeronautical weather chart ! - Copyright ORBIFLY December 2007 - Disclaimer

ORBIFLY MET'MAP TEAM :

Programming & Development : Alexandra Zaïnal
Concept & original design : Baudouin d'Aumeries
Assistance for programming : Marc-Olivier Méhu
Technical & hardware support : Manuel Goepfert

Contact : metmap@orbifly.com




SOURCES & CREDITS :

   NOAA